createdAt,value
2023-04-07T00:00:45.081Z,12.50
2023-04-07T00:03:13.062Z,14.63
2023-04-07T00:05:40.346Z,15.95
2023-04-07T00:08:07.693Z,13.60
2023-04-07T00:10:35.015Z,14.32
2023-04-07T00:13:02.335Z,12.85
2023-04-07T00:15:29.517Z,14.52
2023-04-07T00:17:56.964Z,16.75
2023-04-07T00:20:24.356Z,17.25
2023-04-07T00:22:51.399Z,16.55
2023-04-07T00:25:18.554Z,20.50
2023-04-07T00:27:46.026Z,18.67
2023-04-07T00:30:13.292Z,15.27
2023-04-07T00:32:40.442Z,18.33
2023-04-07T00:35:08.080Z,18.67
2023-04-07T00:37:35.148Z,16.60
2023-04-07T00:40:02.445Z,15.45
2023-04-07T00:42:30.333Z,20.75
2023-04-07T00:44:57.421Z,18.40
2023-04-07T00:47:24.664Z,21.58
2023-04-07T00:49:52.074Z,14.30
2023-04-07T00:52:27.293Z,16.08
2023-04-07T00:54:55.925Z,12.05
2023-04-07T00:57:23.600Z,13.55
2023-04-07T00:59:52.538Z,19.73
2023-04-07T01:02:39.019Z,16.75
2023-04-07T01:05:36.627Z,19.10
2023-04-07T01:08:21.040Z,13.35
2023-04-07T01:11:06.059Z,14.18
2023-04-07T01:13:53.121Z,16.17
2023-04-07T01:16:30.402Z,17.80
2023-04-07T01:19:47.277Z,15.40
2023-04-07T01:22:21.311Z,21.75
2023-04-07T01:25:06.574Z,18.13
2023-04-07T01:28:00.818Z,16.83
2023-04-07T01:30:31.643Z,19.10
2023-04-07T01:33:00.897Z,18.42
2023-04-07T01:35:36.054Z,17.70
2023-04-07T01:38:04.862Z,17.42
2023-04-07T01:40:35.306Z,15.23
2023-04-07T01:43:03.694Z,20.58
2023-04-07T01:45:32.233Z,17.67
2023-04-07T01:48:01.067Z,17.30
2023-04-07T01:50:29.977Z,16.70
2023-04-07T01:52:57.620Z,18.35
2023-04-07T01:55:26.014Z,17.33
2023-04-07T01:57:56.142Z,18.42
2023-04-07T02:00:23.251Z,16.25
2023-04-07T02:02:59.416Z,16.35
2023-04-07T02:05:30.074Z,16.20
2023-04-07T02:08:03.985Z,16.38
2023-04-07T02:10:35.440Z,18.33
2023-04-07T02:13:06.426Z,22.25
2023-04-07T02:15:34.122Z,16.38
2023-04-07T02:18:03.718Z,16.83
2023-04-07T02:20:31.844Z,12.90
2023-04-07T02:22:59.315Z,19.52
2023-04-07T02:25:28.421Z,15.70
2023-04-07T02:27:57.115Z,17.42
2023-04-07T02:30:25.435Z,17.27
2023-04-07T02:32:53.396Z,17.95
2023-04-07T02:35:21.180Z,16.30
2023-04-07T02:37:49.201Z,18.60
2023-04-07T02:40:16.670Z,13.93
2023-04-07T02:42:43.957Z,17.80
2023-04-07T02:45:11.855Z,15.02
2023-04-07T02:47:40.093Z,20.55
2023-04-07T02:50:07.842Z,12.68
2023-04-07T02:52:34.959Z,17.27
2023-04-07T02:55:02.132Z,17.05
2023-04-07T02:57:29.337Z,18.65
2023-04-07T02:59:58.094Z,17.10
2023-04-07T03:02:25.619Z,16.10
2023-04-07T03:04:53.327Z,15.23
2023-04-07T03:07:20.701Z,17.85
2023-04-07T03:09:47.752Z,17.25
2023-04-07T03:12:14.960Z,16.35
2023-04-07T03:14:42.038Z,20.10
2023-04-07T03:17:09.228Z,19.60
2023-04-07T03:19:36.668Z,16.52
2023-04-07T03:22:03.824Z,18.08
2023-04-07T03:24:31.367Z,15.40
2023-04-07T03:26:58.470Z,17.60
2023-04-07T03:29:25.783Z,18.23
2023-04-07T03:31:52.826Z,15.73
2023-04-07T03:34:19.928Z,18.45
2023-04-07T03:36:47.005Z,15.80
2023-04-07T03:39:14.197Z,21.98
2023-04-07T03:41:41.361Z,17.58
2023-04-07T03:44:08.484Z,16.55
2023-04-07T03:46:35.744Z,16.60
2023-04-07T03:49:02.853Z,19.38
2023-04-07T03:51:29.945Z,19.88
2023-04-07T03:53:57.030Z,15.15
2023-04-07T03:56:24.843Z,15.23
2023-04-07T03:58:52.221Z,15.05
2023-04-07T04:01:19.671Z,14.63
2023-04-07T04:03:47.675Z,17.23
2023-04-07T04:06:14.790Z,24.65
2023-04-07T04:08:41.834Z,16.38
2023-04-07T04:11:08.934Z,15.60
2023-04-07T04:13:36.256Z,19.35
2023-04-07T04:16:03.708Z,17.20
2023-04-07T04:18:30.962Z,16.95
2023-04-07T04:20:58.038Z,17.27
2023-04-07T04:23:25.384Z,15.88
2023-04-07T04:25:52.443Z,14.65
2023-04-07T04:28:19.477Z,19.00
2023-04-07T04:30:46.816Z,20.95
2023-04-07T04:33:13.991Z,15.52
2023-04-07T04:35:41.271Z,16.10
2023-04-07T04:38:08.356Z,15.48
2023-04-07T04:40:35.408Z,17.08
2023-04-07T04:43:06.924Z,16.85
2023-04-07T04:45:34.129Z,15.65
2023-04-07T04:48:01.403Z,13.23
2023-04-07T04:50:28.554Z,17.83
2023-04-07T04:52:55.820Z,19.83
2023-04-07T04:55:22.934Z,16.33
2023-04-07T04:57:49.980Z,18.42
2023-04-07T05:00:17.525Z,18.58
2023-04-07T05:02:46.910Z,17.52
2023-04-07T05:05:14.441Z,16.30
2023-04-07T05:07:42.187Z,24.02
2023-04-07T05:10:10.100Z,15.95
2023-04-07T05:12:37.242Z,20.92
2023-04-07T05:15:04.882Z,17.63
2023-04-07T05:17:32.024Z,14.02
2023-04-07T05:19:59.064Z,17.30
2023-04-07T05:22:26.303Z,18.88
2023-04-07T05:24:53.531Z,18.95
2023-04-07T05:27:20.627Z,19.65
2023-04-07T05:29:47.752Z,17.38
2023-04-07T05:32:14.823Z,23.10
2023-04-07T05:34:42.080Z,17.63
2023-04-07T05:37:09.142Z,18.58
2023-04-07T05:39:36.327Z,20.15
2023-04-07T05:42:03.905Z,20.45
2023-04-07T05:44:31.125Z,18.83
2023-04-07T05:46:58.158Z,19.08
2023-04-07T05:49:25.277Z,16.23
2023-04-07T05:51:52.339Z,16.25
2023-04-07T05:54:19.489Z,18.60
2023-04-07T05:56:46.543Z,16.98
2023-04-07T05:59:13.783Z,17.30
2023-04-07T06:01:41.250Z,16.40
2023-04-07T06:04:08.428Z,16.05
2023-04-07T06:06:35.678Z,19.52
2023-04-07T06:09:02.882Z,19.77
2023-04-07T06:11:29.972Z,21.88
2023-04-07T06:13:57.053Z,15.18
2023-04-07T06:16:24.137Z,16.58
2023-04-07T06:18:51.399Z,20.77
2023-04-07T06:21:18.618Z,15.45
2023-04-07T06:23:45.709Z,14.45
2023-04-07T06:26:13.116Z,17.92
2023-04-07T06:28:40.822Z,17.65
2023-04-07T06:31:08.818Z,15.75
2023-04-07T06:33:36.143Z,21.55
2023-04-07T06:36:03.429Z,18.00
2023-04-07T06:38:30.637Z,18.10
2023-04-07T06:40:57.720Z,15.50
2023-04-07T06:43:24.948Z,18.25
2023-04-07T06:45:52.091Z,17.67
2023-04-07T06:48:19.229Z,15.80
2023-04-07T06:50:52.867Z,17.70
2023-04-07T06:53:19.982Z,16.40
2023-04-07T06:55:47.211Z,21.38
2023-04-07T06:58:14.267Z,15.07
2023-04-07T07:00:41.675Z,14.90
2023-04-07T07:03:08.949Z,16.92
2023-04-07T07:05:36.389Z,20.10
2023-04-07T07:08:03.481Z,15.15
2023-04-07T07:10:30.687Z,18.13
2023-04-07T07:12:57.812Z,18.52
2023-04-07T07:15:25.075Z,22.15
2023-04-07T07:17:52.221Z,14.95
2023-04-07T07:20:19.530Z,18.08
2023-04-07T07:22:46.601Z,17.25
2023-04-07T07:25:14.089Z,17.80
2023-04-07T07:27:41.272Z,17.50
2023-04-07T07:30:09.036Z,18.50
2023-04-07T07:32:36.239Z,17.83
2023-04-07T07:35:03.454Z,17.13
2023-04-07T07:37:30.653Z,17.73
2023-04-07T07:39:57.845Z,19.23
2023-04-07T07:42:24.983Z,14.98
2023-04-07T07:44:52.067Z,16.77
2023-04-07T07:47:19.187Z,14.90
2023-04-07T07:49:49.447Z,14.73
2023-04-07T07:52:16.576Z,14.32
2023-04-07T07:54:43.866Z,12.70
2023-04-07T07:57:10.987Z,12.90
2023-04-07T07:59:40.592Z,13.20
2023-04-07T08:02:09.524Z,22.35
2023-04-07T08:04:37.856Z,19.13
2023-04-07T08:07:04.994Z,16.48
2023-04-07T08:09:32.596Z,13.60
2023-04-07T08:11:59.778Z,13.50
2023-04-07T08:14:26.848Z,15.52
2023-04-07T08:16:53.924Z,12.48
2023-04-07T08:19:21.187Z,17.15
2023-04-07T08:21:48.263Z,13.73
2023-04-07T08:24:15.614Z,13.95
2023-04-07T08:26:42.729Z,13.52
2023-04-07T08:29:09.882Z,15.93
2023-04-07T08:31:37.014Z,14.00
2023-04-07T08:34:04.132Z,17.52
2023-04-07T08:36:31.570Z,18.73
2023-04-07T08:39:00.379Z,17.55
2023-04-07T08:41:36.747Z,14.65
2023-04-07T08:44:04.798Z,16.38
2023-04-07T08:46:34.129Z,13.20
2023-04-07T08:49:02.231Z,13.73
2023-04-07T08:51:32.262Z,14.25
2023-04-07T08:54:14.002Z,15.02
2023-04-07T08:56:43.622Z,15.55
2023-04-07T08:59:13.988Z,11.27
2023-04-07T09:01:41.968Z,13.55
2023-04-07T09:04:10.686Z,14.50
2023-04-07T09:06:38.539Z,11.80
2023-04-07T09:09:06.355Z,12.13
2023-04-07T09:11:40.235Z,12.73
2023-04-07T09:14:10.923Z,9.27
2023-04-07T09:16:38.478Z,10.73
2023-04-07T09:19:06.438Z,14.57
2023-04-07T09:21:53.304Z,14.13
2023-04-07T09:24:29.853Z,15.63
2023-04-07T09:27:17.016Z,12.40
2023-04-07T09:29:47.589Z,14.70
2023-04-07T09:32:41.359Z,14.77
2023-04-07T09:35:09.458Z,13.43
2023-04-07T09:37:37.804Z,13.70
2023-04-07T09:40:05.767Z,19.23
2023-04-07T09:42:34.629Z,16.60
2023-04-07T09:45:01.947Z,19.30
2023-04-07T09:47:31.401Z,16.35
2023-04-07T09:50:06.619Z,16.25
2023-04-07T09:52:54.462Z,14.73
2023-04-07T09:55:23.441Z,14.35
2023-04-07T09:57:51.489Z,16.77
2023-04-07T10:00:19.213Z,17.92
2023-04-07T10:02:46.814Z,16.65
2023-04-07T10:05:14.191Z,12.93
2023-04-07T10:07:42.720Z,16.90
2023-04-07T10:10:11.162Z,12.43
2023-04-07T10:12:39.242Z,16.05
2023-04-07T10:15:07.446Z,14.55
2023-04-07T10:17:37.364Z,18.15
2023-04-07T10:20:07.206Z,18.25
2023-04-07T10:22:36.590Z,15.38
2023-04-07T10:25:12.707Z,15.40
2023-04-07T10:27:56.562Z,14.88
2023-04-07T10:30:32.628Z,19.00
2023-04-07T10:33:00.009Z,14.75
2023-04-07T10:35:28.496Z,13.43
2023-04-07T10:38:08.029Z,14.32
2023-04-07T10:40:36.396Z,12.18
2023-04-07T10:43:04.862Z,14.02
2023-04-07T10:45:51.948Z,14.68
2023-04-07T10:48:20.311Z,15.63
2023-04-07T10:51:15.900Z,16.70
2023-04-07T10:54:26.799Z,16.48
2023-04-07T10:57:03.907Z,13.63
2023-04-07T10:59:32.223Z,12.85
2023-04-07T11:02:14.814Z,18.33
2023-04-07T11:04:45.762Z,14.18
2023-04-07T11:07:16.406Z,13.60
2023-04-07T11:09:44.175Z,16.60
2023-04-07T11:12:23.921Z,15.15
2023-04-07T11:14:51.207Z,15.55
2023-04-07T11:17:18.606Z,12.73
2023-04-07T11:19:53.481Z,17.60
2023-04-07T11:24:50.681Z,11.90
2023-04-07T11:27:17.851Z,12.30
2023-04-07T11:29:44.976Z,13.48
2023-04-07T11:32:13.216Z,11.48
2023-04-07T11:34:40.477Z,12.00
2023-04-07T11:37:27.255Z,15.75
2023-04-07T11:39:59.184Z,15.38
2023-04-07T11:42:40.133Z,15.52
2023-04-07T11:45:18.309Z,19.23
2023-04-07T11:47:45.510Z,18.65
2023-04-07T11:50:14.315Z,15.20
2023-04-07T11:52:48.882Z,20.55
2023-04-07T11:55:26.668Z,21.33
2023-04-07T11:57:53.866Z,28.42
2023-04-07T12:00:21.585Z,18.88
2023-04-07T12:02:48.865Z,22.42
2023-04-07T12:05:16.162Z,17.85
2023-04-07T12:07:54.579Z,19.73
2023-04-07T12:10:23.738Z,15.77
2023-04-07T12:12:51.625Z,17.15
2023-04-07T12:15:18.841Z,12.63
2023-04-07T12:17:48.101Z,16.00
2023-04-07T12:20:16.435Z,20.35
2023-04-07T12:22:43.568Z,17.75
2023-04-07T12:25:10.906Z,17.00
2023-04-07T12:27:43.339Z,17.52
2023-04-07T12:30:13.222Z,15.23
2023-04-07T12:32:41.536Z,23.50
2023-04-07T12:35:08.860Z,18.67
2023-04-07T12:37:35.995Z,14.30
2023-04-07T12:40:03.287Z,18.60
2023-04-07T12:42:30.461Z,14.30
2023-04-07T12:44:57.607Z,23.42
2023-04-07T12:47:24.773Z,14.13
2023-04-07T12:49:51.863Z,22.70
2023-04-07T12:52:19.014Z,15.63
2023-04-07T12:54:46.028Z,16.73
2023-04-07T12:57:13.180Z,23.80
2023-04-07T12:59:40.669Z,16.90
2023-04-07T13:02:08.778Z,15.88
2023-04-07T13:04:37.097Z,13.38
2023-04-07T13:07:04.289Z,23.00
2023-04-07T13:09:31.412Z,18.48
2023-04-07T13:11:58.676Z,24.55
2023-04-07T13:14:27.293Z,53.10
2023-04-07T13:16:54.392Z,20.52
2023-04-07T13:19:21.962Z,19.95
2023-04-07T13:21:49.311Z,19.52
2023-04-07T13:24:16.560Z,17.13
2023-04-07T13:26:43.637Z,25.08
2023-04-07T13:29:10.893Z,20.63
2023-04-07T13:31:38.081Z,15.23
2023-04-07T13:34:05.262Z,15.15
2023-04-07T13:36:32.321Z,19.30
2023-04-07T13:38:59.751Z,19.48
2023-04-07T13:41:26.850Z,19.67
2023-04-07T13:43:54.050Z,22.98
2023-04-07T13:46:28.541Z,22.85
2023-04-07T13:48:57.062Z,22.27
2023-04-07T13:51:24.414Z,18.60
2023-04-07T13:53:51.710Z,19.20
2023-04-07T13:56:18.946Z,19.38
2023-04-07T13:58:46.139Z,16.83
2023-04-07T14:01:13.524Z,18.83
2023-04-07T14:03:40.759Z,24.45
2023-04-07T14:06:08.046Z,18.35
2023-04-07T14:08:35.167Z,20.60
2023-04-07T14:11:03.133Z,18.02
2023-04-07T14:13:30.531Z,19.08
2023-04-07T14:15:58.502Z,18.90
2023-04-07T14:18:28.023Z,22.98
2023-04-07T14:20:57.934Z,20.80
2023-04-07T14:23:36.498Z,18.42
2023-04-07T14:26:04.696Z,15.15
2023-04-07T14:28:31.949Z,15.23
2023-04-07T14:30:59.069Z,29.58
2023-04-07T14:33:26.229Z,26.02
2023-04-07T14:35:53.521Z,17.05
2023-04-07T14:38:24.406Z,17.60
2023-04-07T14:40:55.067Z,25.33
2023-04-07T14:43:22.153Z,21.85
2023-04-07T14:45:49.361Z,14.07
2023-04-07T14:48:17.225Z,12.93
2023-04-07T14:50:44.373Z,13.95
2023-04-07T14:53:11.645Z,11.77
2023-04-07T14:55:38.784Z,10.15
2023-04-07T14:58:05.854Z,14.50
2023-04-07T15:00:32.912Z,14.38
2023-04-07T15:03:00.585Z,12.43
2023-04-07T15:05:29.739Z,16.92
2023-04-07T15:07:57.117Z,12.50
2023-04-07T15:10:24.262Z,17.08
2023-04-07T15:12:51.362Z,14.50
2023-04-07T15:15:18.748Z,13.15
2023-04-07T15:17:45.996Z,14.27
2023-04-07T15:20:13.637Z,12.65
2023-04-07T15:22:40.912Z,18.30
2023-04-07T15:25:08.810Z,15.02
2023-04-07T15:27:36.019Z,16.33
2023-04-07T15:30:03.587Z,15.07
2023-04-07T15:32:32.005Z,16.25
2023-04-07T15:34:59.246Z,14.70
2023-04-07T15:37:26.836Z,20.27
2023-04-07T15:39:53.985Z,12.52
2023-04-07T15:42:21.089Z,17.50
2023-04-07T15:44:48.206Z,16.02
2023-04-07T15:47:15.308Z,21.42
2023-04-07T15:49:42.482Z,16.98
2023-04-07T15:52:11.974Z,15.40
2023-04-07T15:54:39.131Z,21.33
2023-04-07T15:57:06.190Z,16.38
2023-04-07T15:59:33.344Z,26.98
2023-04-07T16:02:00.804Z,20.42
2023-04-07T16:04:28.058Z,20.83
2023-04-07T16:06:55.295Z,19.02
2023-04-07T16:09:22.361Z,20.02
2023-04-07T16:11:49.438Z,15.95
2023-04-07T16:14:16.615Z,16.92
2023-04-07T16:16:44.641Z,18.55
2023-04-07T16:19:11.942Z,18.63
2023-04-07T16:21:39.658Z,25.42
2023-04-07T16:24:06.858Z,15.02
2023-04-07T16:26:34.070Z,17.67
2023-04-07T16:29:01.207Z,18.20
2023-04-07T16:31:28.376Z,18.35
2023-04-07T16:33:55.512Z,18.80
2023-04-07T16:36:22.648Z,18.67
2023-04-07T16:38:51.121Z,16.75
2023-04-07T16:41:18.203Z,16.90
2023-04-07T16:43:45.466Z,20.83
2023-04-07T16:46:12.703Z,20.20
2023-04-07T16:48:39.847Z,19.05
2023-04-07T16:51:06.990Z,15.70
2023-04-07T16:53:34.155Z,17.83
2023-04-07T16:56:01.261Z,21.40
2023-04-07T16:58:28.375Z,16.83
2023-04-07T17:00:55.605Z,17.35
2023-04-07T17:03:22.969Z,20.48
2023-04-07T17:05:50.356Z,17.45
2023-04-07T17:08:17.528Z,18.67
2023-04-07T17:10:44.621Z,17.38
2023-04-07T17:13:11.810Z,15.77
2023-04-07T17:15:41.551Z,15.90
2023-04-07T17:18:08.670Z,15.20
2023-04-07T17:20:35.838Z,18.98
2023-04-07T17:23:02.937Z,20.35
2023-04-07T17:25:30.041Z,17.83
2023-04-07T17:27:57.211Z,20.13
2023-04-07T17:30:24.323Z,16.63
2023-04-07T17:32:52.558Z,15.85
2023-04-07T17:35:20.852Z,23.80
2023-04-07T17:37:48.504Z,19.13
2023-04-07T17:40:15.844Z,24.50
2023-04-07T17:42:43.169Z,20.02
2023-04-07T17:45:10.925Z,20.33
2023-04-07T17:47:38.727Z,17.95
2023-04-07T17:50:06.778Z,23.88
2023-04-07T17:52:33.885Z,21.40
2023-04-07T17:55:01.726Z,22.63
2023-04-07T17:57:29.150Z,21.38
2023-04-07T17:59:56.316Z,20.38
2023-04-07T18:02:23.676Z,19.83
2023-04-07T18:04:51.040Z,20.92
2023-04-07T18:07:18.501Z,19.23
2023-04-07T18:09:45.719Z,18.77
2023-04-07T18:12:12.943Z,27.00
2023-04-07T18:14:40.360Z,24.80
2023-04-07T18:17:07.470Z,21.20
2023-04-07T18:19:34.608Z,19.92
2023-04-07T18:22:02.024Z,22.33
2023-04-07T18:24:29.363Z,22.52
2023-04-07T18:26:56.992Z,19.80
2023-04-07T18:29:24.550Z,19.73
2023-04-07T18:31:51.693Z,20.80
2023-04-07T18:34:18.844Z,21.30
2023-04-07T18:36:47.651Z,23.80
2023-04-07T18:39:15.391Z,24.65
2023-04-07T18:41:45.422Z,22.25
2023-04-07T18:44:13.120Z,17.27
2023-04-07T18:46:40.559Z,20.20
2023-04-07T18:49:07.748Z,21.83
2023-04-07T18:51:36.093Z,16.83
2023-04-07T18:54:03.287Z,16.73
2023-04-07T18:56:32.983Z,16.40
2023-04-07T18:59:00.297Z,17.15
2023-04-07T19:01:27.511Z,16.80
2023-04-07T19:03:54.819Z,14.93
2023-04-07T19:06:21.999Z,18.15
2023-04-07T19:08:50.863Z,16.90
2023-04-07T19:11:18.334Z,19.75
2023-04-07T19:13:45.567Z,18.13
2023-04-07T19:16:12.780Z,21.90
2023-04-07T19:18:40.110Z,19.65
2023-04-07T19:21:08.357Z,19.50
2023-04-07T19:23:35.714Z,19.40
2023-04-07T19:26:03.998Z,22.55
2023-04-07T19:28:31.499Z,24.80
2023-04-07T19:30:58.676Z,23.20
2023-04-07T19:33:25.820Z,21.00
2023-04-07T19:35:54.068Z,20.45
2023-04-07T19:38:21.269Z,18.55
2023-04-07T19:40:48.425Z,23.13
2023-04-07T19:43:17.412Z,22.42
2023-04-07T19:45:47.920Z,20.95
2023-04-07T19:48:16.128Z,20.88
2023-04-07T19:50:43.962Z,19.10
2023-04-07T19:53:16.242Z,20.90
2023-04-07T19:55:44.410Z,20.35
2023-04-07T19:58:11.945Z,20.23
2023-04-07T20:00:40.345Z,22.58
2023-04-07T20:03:07.866Z,23.67
2023-04-07T20:05:35.707Z,26.27
2023-04-07T20:08:03.216Z,22.45
2023-04-07T20:10:30.810Z,24.80
2023-04-07T20:12:58.023Z,22.88
2023-04-07T20:15:25.089Z,22.67
2023-04-07T20:17:52.302Z,22.75
2023-04-07T20:20:19.956Z,23.23
2023-04-07T20:22:47.123Z,23.13
2023-04-07T20:25:14.264Z,24.00
2023-04-07T20:27:41.410Z,28.65
2023-04-07T20:30:09.147Z,26.45
2023-04-07T20:32:36.278Z,25.25
2023-04-07T20:35:04.016Z,24.70
2023-04-07T20:37:31.174Z,23.13
2023-04-07T20:39:58.933Z,25.45
2023-04-07T20:42:26.067Z,27.20
2023-04-07T20:44:54.867Z,24.75
2023-04-07T20:47:21.949Z,27.23
2023-04-07T20:49:49.123Z,24.17
2023-04-07T20:52:16.218Z,24.25
2023-04-07T20:54:44.903Z,25.02
2023-04-07T20:57:12.069Z,23.67
2023-04-07T20:59:39.273Z,29.88
2023-04-07T21:02:07.011Z,25.33
2023-04-07T21:04:34.393Z,24.42
2023-04-07T21:07:01.543Z,30.27
2023-04-07T21:09:28.649Z,28.08
2023-04-07T21:11:55.868Z,28.15
2023-04-07T21:14:22.949Z,30.77
2023-04-07T21:16:50.040Z,30.25
2023-04-07T21:19:17.753Z,30.90
2023-04-07T21:21:44.855Z,30.38
2023-04-07T21:24:11.946Z,28.60
2023-04-07T21:26:39.017Z,29.73
2023-04-07T21:29:06.111Z,28.65
2023-04-07T21:31:33.838Z,29.67
2023-04-07T21:34:01.058Z,33.63
2023-04-07T21:36:28.253Z,27.25
2023-04-07T21:38:55.358Z,27.67
2023-04-07T21:41:22.467Z,31.95
2023-04-07T21:43:49.659Z,30.45
2023-04-07T21:46:17.668Z,34.88
2023-04-07T21:48:44.824Z,29.83
2023-04-07T21:51:12.026Z,33.22
2023-04-07T21:53:39.283Z,31.73
2023-04-07T21:56:09.236Z,33.20
2023-04-07T21:58:37.455Z,28.52
2023-04-07T22:01:04.872Z,36.55
2023-04-07T22:03:32.192Z,32.75
2023-04-07T22:06:01.151Z,31.80
2023-04-07T22:08:28.306Z,32.03
2023-04-07T22:10:55.556Z,33.97
2023-04-07T22:13:22.694Z,32.80
2023-04-07T22:15:50.520Z,33.88
2023-04-07T22:18:18.155Z,35.70
2023-04-07T22:20:46.375Z,36.33
2023-04-07T22:23:13.513Z,37.67
2023-04-07T22:25:40.637Z,38.00
2023-04-07T22:28:07.816Z,36.95
2023-04-07T22:30:34.984Z,39.97
2023-04-07T22:33:02.126Z,38.47
2023-04-07T22:35:29.313Z,37.08
2023-04-07T22:37:56.379Z,43.15
2023-04-07T22:40:23.499Z,41.50
2023-04-07T22:42:50.691Z,36.28
2023-04-07T22:45:20.909Z,39.70
2023-04-07T22:47:48.116Z,39.63
2023-04-07T22:50:15.717Z,37.97
2023-04-07T22:52:42.793Z,38.38
2023-04-07T22:55:10.403Z,39.25
2023-04-07T22:57:37.548Z,37.30
2023-04-07T23:00:05.763Z,43.42
2023-04-07T23:02:33.014Z,43.58
2023-04-07T23:05:00.244Z,40.63
2023-04-07T23:07:27.358Z,46.40
2023-04-07T23:09:54.466Z,40.60
2023-04-07T23:12:21.727Z,44.92
2023-04-07T23:14:48.858Z,52.55
2023-04-07T23:17:16.277Z,57.92
2023-04-07T23:19:43.438Z,55.13
2023-04-07T23:22:10.517Z,55.30
2023-04-07T23:24:37.654Z,66.10
2023-04-07T23:27:04.875Z,48.25
2023-04-07T23:29:32.598Z,46.33
2023-04-07T23:31:59.773Z,42.65
2023-04-07T23:34:26.902Z,40.90
2023-04-07T23:36:54.034Z,39.92
2023-04-07T23:39:21.166Z,29.05
2023-04-07T23:41:48.404Z,28.00
2023-04-07T23:44:15.713Z,29.38
2023-04-07T23:46:42.800Z,26.75
2023-04-07T23:49:10.060Z,23.60
2023-04-07T23:51:37.248Z,17.35
2023-04-07T23:54:04.337Z,17.92
2023-04-07T23:56:33.202Z,17.58
2023-04-07T23:59:00.408Z,16.20
